sensor_id;sensor_type;location;lat;lon;timestamp;temperature;humidity
3866;DHT22;1948;53.250;10.412;2022-12-05T00:01:55;4.70;99.90
3866;DHT22;1948;53.250;10.412;2022-12-05T00:04:22;4.80;99.90
3866;DHT22;1948;53.250;10.412;2022-12-05T00:06:54;4.80;99.90
3866;DHT22;1948;53.250;10.412;2022-12-05T00:09:24;4.80;99.90
3866;DHT22;1948;53.250;10.412;2022-12-05T00:11:53;4.80;99.90
3866;DHT22;1948;53.250;10.412;2022-12-05T00:14:20;4.80;99.90
3866;DHT22;1948;53.250;10.412;2022-12-05T00:16:47;4.90;99.90
3866;DHT22;1948;53.250;10.412;2022-12-05T00:19:15;4.90;99.90
3866;DHT22;1948;53.250;10.412;2022-12-05T00:21:44;4.90;99.90
3866;DHT22;1948;53.250;10.412;2022-12-05T00:24:15;4.90;99.90
3866;DHT22;1948;53.250;10.412;2022-12-05T00:26:43;4.90;99.90
3866;DHT22;1948;53.250;10.412;2022-12-05T00:29:10;4.90;99.90
3866;DHT22;1948;53.250;10.412;2022-12-05T00:31:37;4.80;99.90
3866;DHT22;1948;53.250;10.412;2022-12-05T00:34:05;4.80;99.90
3866;DHT22;1948;53.250;10.412;2022-12-05T00:36:35;4.80;99.90
3866;DHT22;1948;53.250;10.412;2022-12-05T00:39:08;4.80;99.90
3866;DHT22;1948;53.250;10.412;2022-12-05T00:41:36;4.80;99.90
3866;DHT22;1948;53.250;10.412;2022-12-05T00:44:06;4.90;99.90
3866;DHT22;1948;53.250;10.412;2022-12-05T00:46:36;4.90;99.90
3866;DHT22;1948;53.250;10.412;2022-12-05T00:49:05;4.90;99.90
3866;DHT22;1948;53.250;10.412;2022-12-05T00:51:38;4.90;99.90
3866;DHT22;1948;53.250;10.412;2022-12-05T00:54:12;4.90;99.90
3866;DHT22;1948;53.250;10.412;2022-12-05T00:56:42;4.90;99.90
3866;DHT22;1948;53.250;10.412;2022-12-05T00:59:17;4.90;99.90
3866;DHT22;1948;53.250;10.412;2022-12-05T01:01:48;4.90;99.90
3866;DHT22;1948;53.250;10.412;2022-12-05T01:04:22;4.90;99.90
3866;DHT22;1948;53.250;10.412;2022-12-05T01:06:57;4.90;99.90
3866;DHT22;1948;53.250;10.412;2022-12-05T01:09:25;4.90;99.90
3866;DHT22;1948;53.250;10.412;2022-12-05T01:11:55;4.90;99.90
3866;DHT22;1948;53.250;10.412;2022-12-05T01:14:23;4.80;99.90
3866;DHT22;1948;53.250;10.412;2022-12-05T01:16:54;4.90;99.90
3866;DHT22;1948;53.250;10.412;2022-12-05T01:19:31;4.90;99.90
3866;DHT22;1948;53.250;10.412;2022-12-05T01:21:59;4.80;99.90
3866;DHT22;1948;53.250;10.412;2022-12-05T01:24:27;4.80;99.90
3866;DHT22;1948;53.250;10.412;2022-12-05T01:26:55;4.80;99.90
3866;DHT22;1948;53.250;10.412;2022-12-05T01:29:24;4.90;99.90
3866;DHT22;1948;53.250;10.412;2022-12-05T01:31:52;4.90;99.90
3866;DHT22;1948;53.250;10.412;2022-12-05T01:34:20;4.90;99.90
3866;DHT22;1948;53.250;10.412;2022-12-05T01:36:50;4.80;99.90
3866;DHT22;1948;53.250;10.412;2022-12-05T01:39:17;4.80;99.90
3866;DHT22;1948;53.250;10.412;2022-12-05T01:41:47;4.80;99.90
3866;DHT22;1948;53.250;10.412;2022-12-05T01:46:47;4.80;99.90
3866;DHT22;1948;53.250;10.412;2022-12-05T01:49:30;4.80;99.90
3866;DHT22;1948;53.250;10.412;2022-12-05T01:52:06;4.70;99.90
3866;DHT22;1948;53.250;10.412;2022-12-05T01:54:36;4.70;99.90
3866;DHT22;1948;53.250;10.412;2022-12-05T01:57:06;4.70;99.90
3866;DHT22;1948;53.250;10.412;2022-12-05T01:59:52;4.80;99.90
3866;DHT22;1948;53.250;10.412;2022-12-05T02:02:23;4.80;99.90
3866;DHT22;1948;53.250;10.412;2022-12-05T02:05:05;4.80;99.90
3866;DHT22;1948;53.250;10.412;2022-12-05T02:07:38;4.80;99.90
3866;DHT22;1948;53.250;10.412;2022-12-05T02:10:07;4.80;99.90
3866;DHT22;1948;53.250;10.412;2022-12-05T02:12:35;4.80;99.90
3866;DHT22;1948;53.250;10.412;2022-12-05T02:18:29;4.80;99.90
3866;DHT22;1948;53.250;10.412;2022-12-05T02:30:58;4.90;99.90
3866;DHT22;1948;53.250;10.412;2022-12-05T02:36:26;4.90;99.90
3866;DHT22;1948;53.250;10.412;2022-12-05T02:39:41;4.90;99.90
3866;DHT22;1948;53.250;10.412;2022-12-05T02:45:09;4.90;99.90
3866;DHT22;1948;53.250;10.412;2022-12-05T02:47:46;4.80;99.90
3866;DHT22;1948;53.250;10.412;2022-12-05T02:50:18;4.90;99.90
3866;DHT22;1948;53.250;10.412;2022-12-05T02:52:49;4.80;99.90
3866;DHT22;1948;53.250;10.412;2022-12-05T02:55:21;4.90;99.90
3866;DHT22;1948;53.250;10.412;2022-12-05T02:57:54;4.90;99.90
3866;DHT22;1948;53.250;10.412;2022-12-05T03:00:24;4.80;99.90
3866;DHT22;1948;53.250;10.412;2022-12-05T03:02:55;4.90;99.90
3866;DHT22;1948;53.250;10.412;2022-12-05T03:05:31;4.90;99.90
3866;DHT22;1948;53.250;10.412;2022-12-05T03:08:11;4.90;99.90
3866;DHT22;1948;53.250;10.412;2022-12-05T03:10:42;4.90;99.90
3866;DHT22;1948;53.250;10.412;2022-12-05T03:13:20;4.90;99.90
3866;DHT22;1948;53.250;10.412;2022-12-05T03:16:07;4.90;99.90
3866;DHT22;1948;53.250;10.412;2022-12-05T03:19:11;4.90;99.90
3866;DHT22;1948;53.250;10.412;2022-12-05T03:21:58;4.80;99.90
3866;DHT22;1948;53.250;10.412;2022-12-05T03:24:28;4.80;99.90
3866;DHT22;1948;53.250;10.412;2022-12-05T03:41:34;4.70;99.90
3866;DHT22;1948;53.250;10.412;2022-12-05T03:46:51;4.60;99.90
3866;DHT22;1948;53.250;10.412;2022-12-05T03:55:28;4.50;99.90
3866;DHT22;1948;53.250;10.412;2022-12-05T03:58:03;4.50;99.90
3866;DHT22;1948;53.250;10.412;2022-12-05T04:00:45;4.50;99.90
3866;DHT22;1948;53.250;10.412;2022-12-05T04:03:22;4.60;99.90
3866;DHT22;1948;53.250;10.412;2022-12-05T04:05:58;4.60;99.90
3866;DHT22;1948;53.250;10.412;2022-12-05T04:08:44;4.70;99.90
3866;DHT22;1948;53.250;10.412;2022-12-05T04:11:18;4.70;99.90
3866;DHT22;1948;53.250;10.412;2022-12-05T04:13:54;4.70;99.90
3866;DHT22;1948;53.250;10.412;2022-12-05T04:16:39;4.70;99.90
3866;DHT22;1948;53.250;10.412;2022-12-05T04:22:27;4.70;99.90
3866;DHT22;1948;53.250;10.412;2022-12-05T04:24:58;4.70;99.90
3866;DHT22;1948;53.250;10.412;2022-12-05T04:28:19;4.60;99.90
3866;DHT22;1948;53.250;10.412;2022-12-05T04:31:12;4.70;99.90
3866;DHT22;1948;53.250;10.412;2022-12-05T04:34:06;4.70;99.90
3866;DHT22;1948;53.250;10.412;2022-12-05T04:36:49;4.70;99.90
3866;DHT22;1948;53.250;10.412;2022-12-05T04:39:39;4.60;99.90
3866;DHT22;1948;53.250;10.412;2022-12-05T04:42:19;4.60;99.90
3866;DHT22;1948;53.250;10.412;2022-12-05T04:45:08;4.60;99.90
3866;DHT22;1948;53.250;10.412;2022-12-05T04:47:42;4.70;99.90
3866;DHT22;1948;53.250;10.412;2022-12-05T04:50:13;4.70;99.90
3866;DHT22;1948;53.250;10.412;2022-12-05T04:52:49;4.70;99.90
3866;DHT22;1948;53.250;10.412;2022-12-05T04:55:22;4.70;99.90
3866;DHT22;1948;53.250;10.412;2022-12-05T04:58:16;4.70;99.90
3866;DHT22;1948;53.250;10.412;2022-12-05T05:01:09;4.70;99.90
3866;DHT22;1948;53.250;10.412;2022-12-05T05:04:08;4.60;99.90
3866;DHT22;1948;53.250;10.412;2022-12-05T05:06:39;4.50;99.90
3866;DHT22;1948;53.250;10.412;2022-12-05T05:09:10;4.60;99.90
3866;DHT22;1948;53.250;10.412;2022-12-05T05:11:37;4.60;99.90
3866;DHT22;1948;53.250;10.412;2022-12-05T05:14:04;4.60;99.90
3866;DHT22;1948;53.250;10.412;2022-12-05T05:16:41;4.60;99.90
3866;DHT22;1948;53.250;10.412;2022-12-05T05:19:11;4.60;99.90
3866;DHT22;1948;53.250;10.412;2022-12-05T05:21:40;4.60;99.90
3866;DHT22;1948;53.250;10.412;2022-12-05T05:24:09;4.60;99.90
3866;DHT22;1948;53.250;10.412;2022-12-05T05:26:41;4.60;99.90
3866;DHT22;1948;53.250;10.412;2022-12-05T05:29:12;4.60;99.90
3866;DHT22;1948;53.250;10.412;2022-12-05T05:31:40;4.60;99.90
3866;DHT22;1948;53.250;10.412;2022-12-05T05:34:11;4.60;99.90
3866;DHT22;1948;53.250;10.412;2022-12-05T05:36:41;4.60;99.90
3866;DHT22;1948;53.250;10.412;2022-12-05T05:39:13;4.60;99.90
3866;DHT22;1948;53.250;10.412;2022-12-05T05:41:43;4.70;99.90
3866;DHT22;1948;53.250;10.412;2022-12-05T05:44:10;4.60;99.90
3866;DHT22;1948;53.250;10.412;2022-12-05T05:46:38;4.60;99.90
3866;DHT22;1948;53.250;10.412;2022-12-05T05:49:05;4.60;99.90
3866;DHT22;1948;53.250;10.412;2022-12-05T05:51:35;4.60;99.90
3866;DHT22;1948;53.250;10.412;2022-12-05T05:54:02;4.50;99.90
3866;DHT22;1948;53.250;10.412;2022-12-05T05:56:34;4.40;99.90
3866;DHT22;1948;53.250;10.412;2022-12-05T05:59:06;4.40;99.90
3866;DHT22;1948;53.250;10.412;2022-12-05T06:01:33;4.50;99.90
3866;DHT22;1948;53.250;10.412;2022-12-05T06:04:00;4.50;99.90
3866;DHT22;1948;53.250;10.412;2022-12-05T06:06:33;4.50;99.90
3866;DHT22;1948;53.250;10.412;2022-12-05T06:09:05;4.50;99.90
3866;DHT22;1948;53.250;10.412;2022-12-05T06:11:37;4.50;99.90
3866;DHT22;1948;53.250;10.412;2022-12-05T06:14:04;4.60;99.90
3866;DHT22;1948;53.250;10.412;2022-12-05T06:16:34;4.60;99.90
3866;DHT22;1948;53.250;10.412;2022-12-05T06:19:01;4.60;99.90
3866;DHT22;1948;53.250;10.412;2022-12-05T06:21:33;4.70;99.90
3866;DHT22;1948;53.250;10.412;2022-12-05T06:24:00;4.60;99.90
3866;DHT22;1948;53.250;10.412;2022-12-05T06:26:29;4.60;99.90
3866;DHT22;1948;53.250;10.412;2022-12-05T06:29:00;4.60;99.90
3866;DHT22;1948;53.250;10.412;2022-12-05T06:31:27;4.50;99.90
3866;DHT22;1948;53.250;10.412;2022-12-05T06:34:01;4.40;99.90
3866;DHT22;1948;53.250;10.412;2022-12-05T06:36:30;4.40;99.90
3866;DHT22;1948;53.250;10.412;2022-12-05T06:39:02;4.30;99.90
3866;DHT22;1948;53.250;10.412;2022-12-05T06:41:31;4.30;99.90
3866;DHT22;1948;53.250;10.412;2022-12-05T06:44:01;4.30;99.90
3866;DHT22;1948;53.250;10.412;2022-12-05T06:46:31;4.40;99.90
3866;DHT22;1948;53.250;10.412;2022-12-05T06:48:58;4.30;99.90
3866;DHT22;1948;53.250;10.412;2022-12-05T06:51:25;4.30;99.90
3866;DHT22;1948;53.250;10.412;2022-12-05T06:53:57;4.40;99.90
3866;DHT22;1948;53.250;10.412;2022-12-05T06:56:24;4.40;99.90
3866;DHT22;1948;53.250;10.412;2022-12-05T06:58:55;4.30;99.90
3866;DHT22;1948;53.250;10.412;2022-12-05T07:01:23;4.40;99.90
3866;DHT22;1948;53.250;10.412;2022-12-05T07:06:40;4.30;99.90
3866;DHT22;1948;53.250;10.412;2022-12-05T07:09:21;4.30;99.90
3866;DHT22;1948;53.250;10.412;2022-12-05T07:12:12;4.40;99.90
3866;DHT22;1948;53.250;10.412;2022-12-05T07:14:40;4.30;99.90
3866;DHT22;1948;53.250;10.412;2022-12-05T07:17:14;4.30;99.90
3866;DHT22;1948;53.250;10.412;2022-12-05T07:19:47;4.40;99.90
3866;DHT22;1948;53.250;10.412;2022-12-05T07:22:16;4.40;99.90
3866;DHT22;1948;53.250;10.412;2022-12-05T07:24:44;4.40;99.90
3866;DHT22;1948;53.250;10.412;2022-12-05T07:27:15;4.40;99.90
3866;DHT22;1948;53.250;10.412;2022-12-05T07:29:52;4.40;99.90
3866;DHT22;1948;53.250;10.412;2022-12-05T07:32:19;4.30;99.90
3866;DHT22;1948;53.250;10.412;2022-12-05T07:34:48;4.30;99.90
3866;DHT22;1948;53.250;10.412;2022-12-05T07:37:21;4.40;99.90
3866;DHT22;1948;53.250;10.412;2022-12-05T07:39:51;4.40;99.90
3866;DHT22;1948;53.250;10.412;2022-12-05T07:42:18;4.30;99.90
3866;DHT22;1948;53.250;10.412;2022-12-05T07:44:45;4.30;99.90
3866;DHT22;1948;53.250;10.412;2022-12-05T07:47:15;4.30;99.90
3866;DHT22;1948;53.250;10.412;2022-12-05T07:49:42;4.30;99.90
3866;DHT22;1948;53.250;10.412;2022-12-05T07:52:13;4.40;99.90
3866;DHT22;1948;53.250;10.412;2022-12-05T07:54:40;4.40;99.90
3866;DHT22;1948;53.250;10.412;2022-12-05T07:57:07;4.40;99.90
3866;DHT22;1948;53.250;10.412;2022-12-05T07:59:36;4.30;99.90
3866;DHT22;1948;53.250;10.412;2022-12-05T08:02:03;4.30;99.90
3866;DHT22;1948;53.250;10.412;2022-12-05T08:04:32;4.40;99.90
3866;DHT22;1948;53.250;10.412;2022-12-05T08:06:59;4.30;99.90
3866;DHT22;1948;53.250;10.412;2022-12-05T08:09:26;4.30;99.90
3866;DHT22;1948;53.250;10.412;2022-12-05T08:11:53;4.30;99.90
3866;DHT22;1948;53.250;10.412;2022-12-05T08:14:20;4.30;99.90
3866;DHT22;1948;53.250;10.412;2022-12-05T08:16:49;4.20;99.90
3866;DHT22;1948;53.250;10.412;2022-12-05T08:19:16;4.30;99.90
3866;DHT22;1948;53.250;10.412;2022-12-05T08:21:48;4.30;99.90
3866;DHT22;1948;53.250;10.412;2022-12-05T08:24:17;4.30;99.90
3866;DHT22;1948;53.250;10.412;2022-12-05T08:26:44;4.30;99.90
3866;DHT22;1948;53.250;10.412;2022-12-05T08:29:13;4.30;99.90
3866;DHT22;1948;53.250;10.412;2022-12-05T08:31:47;4.20;99.90
3866;DHT22;1948;53.250;10.412;2022-12-05T08:34:21;4.20;99.90
3866;DHT22;1948;53.250;10.412;2022-12-05T08:36:51;4.20;99.90
3866;DHT22;1948;53.250;10.412;2022-12-05T08:39:18;4.20;99.90
3866;DHT22;1948;53.250;10.412;2022-12-05T08:41:46;4.30;99.90
3866;DHT22;1948;53.250;10.412;2022-12-05T08:44:13;4.30;99.90
3866;DHT22;1948;53.250;10.412;2022-12-05T08:46:47;4.30;99.90
3866;DHT22;1948;53.250;10.412;2022-12-05T08:49:15;4.30;99.90
3866;DHT22;1948;53.250;10.412;2022-12-05T08:51:45;4.20;99.90
3866;DHT22;1948;53.250;10.412;2022-12-05T08:54:12;4.30;99.90
3866;DHT22;1948;53.250;10.412;2022-12-05T08:56:42;4.30;99.90
3866;DHT22;1948;53.250;10.412;2022-12-05T08:59:09;4.30;99.90
3866;DHT22;1948;53.250;10.412;2022-12-05T09:01:36;4.30;99.90
3866;DHT22;1948;53.250;10.412;2022-12-05T09:04:06;4.30;99.90
3866;DHT22;1948;53.250;10.412;2022-12-05T09:06:36;4.40;99.90
3866;DHT22;1948;53.250;10.412;2022-12-05T09:09:06;4.40;99.90
3866;DHT22;1948;53.250;10.412;2022-12-05T09:11:37;4.50;99.90
3866;DHT22;1948;53.250;10.412;2022-12-05T09:14:12;4.40;99.90
3866;DHT22;1948;53.250;10.412;2022-12-05T09:16:40;4.30;99.90
3866;DHT22;1948;53.250;10.412;2022-12-05T09:19:15;4.40;99.90
3866;DHT22;1948;53.250;10.412;2022-12-05T09:21:51;4.40;99.90
3866;DHT22;1948;53.250;10.412;2022-12-05T09:24:21;4.50;99.90
3866;DHT22;1948;53.250;10.412;2022-12-05T09:26:50;4.60;99.90
3866;DHT22;1948;53.250;10.412;2022-12-05T09:29:17;4.60;99.90
3866;DHT22;1948;53.250;10.412;2022-12-05T09:31:46;4.70;99.90
3866;DHT22;1948;53.250;10.412;2022-12-05T09:34:17;4.60;99.90
3866;DHT22;1948;53.250;10.412;2022-12-05T09:36:47;4.50;99.90
3866;DHT22;1948;53.250;10.412;2022-12-05T09:39:24;4.50;99.90
3866;DHT22;1948;53.250;10.412;2022-12-05T09:50:38;4.70;99.90
3866;DHT22;1948;53.250;10.412;2022-12-05T09:53:40;4.70;99.90
3866;DHT22;1948;53.250;10.412;2022-12-05T09:58:45;4.80;99.90
3866;DHT22;1948;53.250;10.412;2022-12-05T10:04:43;4.80;99.90
3866;DHT22;1948;53.250;10.412;2022-12-05T10:13:19;4.90;99.90
3866;DHT22;1948;53.250;10.412;2022-12-05T10:15:59;4.90;99.90
3866;DHT22;1948;53.250;10.412;2022-12-05T10:24:29;4.90;99.90
3866;DHT22;1948;53.250;10.412;2022-12-05T10:26:44;4.90;99.90
3866;DHT22;1948;53.250;10.412;2022-12-05T10:29:32;4.90;99.90
3866;DHT22;1948;53.250;10.412;2022-12-05T10:32:14;4.90;99.90
3866;DHT22;1948;53.250;10.412;2022-12-05T10:34:44;4.90;99.90
3866;DHT22;1948;53.250;10.412;2022-12-05T10:37:17;4.80;99.90
3866;DHT22;1948;53.250;10.412;2022-12-05T10:39:49;4.90;99.90
3866;DHT22;1948;53.250;10.412;2022-12-05T10:42:30;4.80;99.90
3866;DHT22;1948;53.250;10.412;2022-12-05T10:45:06;4.90;99.90
3866;DHT22;1948;53.250;10.412;2022-12-05T10:47:39;5.00;99.90
3866;DHT22;1948;53.250;10.412;2022-12-05T10:52:50;5.10;99.90
3866;DHT22;1948;53.250;10.412;2022-12-05T10:55:19;5.00;99.90
3866;DHT22;1948;53.250;10.412;2022-12-05T10:57:51;5.10;99.90
3866;DHT22;1948;53.250;10.412;2022-12-05T11:00:45;5.10;99.90
3866;DHT22;1948;53.250;10.412;2022-12-05T11:03:35;5.10;99.90
3866;DHT22;1948;53.250;10.412;2022-12-05T11:06:25;5.10;99.90
3866;DHT22;1948;53.250;10.412;2022-12-05T11:09:02;5.00;99.90
3866;DHT22;1948;53.250;10.412;2022-12-05T11:11:33;5.00;99.90
3866;DHT22;1948;53.250;10.412;2022-12-05T11:14:06;5.00;99.90
3866;DHT22;1948;53.250;10.412;2022-12-05T11:16:54;5.00;99.90
3866;DHT22;1948;53.250;10.412;2022-12-05T11:19:38;5.00;99.90
3866;DHT22;1948;53.250;10.412;2022-12-05T11:22:15;5.00;99.90
3866;DHT22;1948;53.250;10.412;2022-12-05T11:24:42;5.00;99.90
3866;DHT22;1948;53.250;10.412;2022-12-05T11:27:30;5.00;99.90
3866;DHT22;1948;53.250;10.412;2022-12-05T11:30:19;5.00;99.90
3866;DHT22;1948;53.250;10.412;2022-12-05T11:32:50;5.00;99.90
3866;DHT22;1948;53.250;10.412;2022-12-05T11:35:27;4.90;99.90
3866;DHT22;1948;53.250;10.412;2022-12-05T11:38:04;4.90;99.90
3866;DHT22;1948;53.250;10.412;2022-12-05T12:30:04;5.10;99.90
3866;DHT22;1948;53.250;10.412;2022-12-05T12:41:49;4.90;99.90
3866;DHT22;1948;53.250;10.412;2022-12-05T12:50:34;4.70;99.90
3866;DHT22;1948;53.250;10.412;2022-12-05T13:02:53;4.70;99.90
3866;DHT22;1948;53.250;10.412;2022-12-05T13:05:29;4.70;99.90
3866;DHT22;1948;53.250;10.412;2022-12-05T13:11:07;4.70;99.90
3866;DHT22;1948;53.250;10.412;2022-12-05T13:13:53;4.70;99.90
3866;DHT22;1948;53.250;10.412;2022-12-05T13:16:25;4.60;99.90
3866;DHT22;1948;53.250;10.412;2022-12-05T13:18:55;4.60;99.90
3866;DHT22;1948;53.250;10.412;2022-12-05T13:21:23;4.60;99.90
3866;DHT22;1948;53.250;10.412;2022-12-05T13:23:55;4.60;99.90
3866;DHT22;1948;53.250;10.412;2022-12-05T13:26:30;4.60;99.90
3866;DHT22;1948;53.250;10.412;2022-12-05T13:29:00;4.70;99.90
3866;DHT22;1948;53.250;10.412;2022-12-05T13:37:26;4.70;99.90
3866;DHT22;1948;53.250;10.412;2022-12-05T13:43:21;4.70;99.90
3866;DHT22;1948;53.250;10.412;2022-12-05T13:46:25;4.60;99.90
3866;DHT22;1948;53.250;10.412;2022-12-05T13:49:25;4.60;99.90
3866;DHT22;1948;53.250;10.412;2022-12-05T13:52:10;4.60;99.90
3866;DHT22;1948;53.250;10.412;2022-12-05T13:54:46;4.60;99.90
3866;DHT22;1948;53.250;10.412;2022-12-05T14:07:43;4.50;99.90
3866;DHT22;1948;53.250;10.412;2022-12-05T14:10:20;4.50;99.90
3866;DHT22;1948;53.250;10.412;2022-12-05T14:15:41;4.40;99.90
3866;DHT22;1948;53.250;10.412;2022-12-05T14:21:16;4.50;99.90
3866;DHT22;1948;53.250;10.412;2022-12-05T14:32:23;4.50;99.90
3866;DHT22;1948;53.250;10.412;2022-12-05T14:37:33;4.40;99.90
3866;DHT22;1948;53.250;10.412;2022-12-05T14:40:50;4.30;99.90
3866;DHT22;1948;53.250;10.412;2022-12-05T14:43:30;4.30;99.90
3866;DHT22;1948;53.250;10.412;2022-12-05T14:46:07;4.30;99.90
3866;DHT22;1948;53.250;10.412;2022-12-05T14:48:42;4.30;99.90
3866;DHT22;1948;53.250;10.412;2022-12-05T14:54:17;4.20;99.90
3866;DHT22;1948;53.250;10.412;2022-12-05T14:56:52;4.30;99.90
3866;DHT22;1948;53.250;10.412;2022-12-05T14:59:33;4.20;99.90
3866;DHT22;1948;53.250;10.412;2022-12-05T15:02:52;4.20;99.90
3866;DHT22;1948;53.250;10.412;2022-12-05T15:05:30;4.30;99.90
3866;DHT22;1948;53.250;10.412;2022-12-05T15:07:59;4.20;99.90
3866;DHT22;1948;53.250;10.412;2022-12-05T15:10:37;4.20;99.90
3866;DHT22;1948;53.250;10.412;2022-12-05T15:13:20;4.30;99.90
3866;DHT22;1948;53.250;10.412;2022-12-05T15:16:17;4.30;99.90
3866;DHT22;1948;53.250;10.412;2022-12-05T15:18:52;4.40;99.90
3866;DHT22;1948;53.250;10.412;2022-12-05T15:21:35;4.40;99.90
3866;DHT22;1948;53.250;10.412;2022-12-05T15:24:14;4.40;99.90
3866;DHT22;1948;53.250;10.412;2022-12-05T15:26:49;4.30;99.90
3866;DHT22;1948;53.250;10.412;2022-12-05T15:31:53;4.30;99.90
3866;DHT22;1948;53.250;10.412;2022-12-05T15:40:09;4.30;99.90
3866;DHT22;1948;53.250;10.412;2022-12-05T15:42:42;4.20;99.90
3866;DHT22;1948;53.250;10.412;2022-12-05T15:55:45;4.10;99.90
3866;DHT22;1948;53.250;10.412;2022-12-05T16:01:24;4.10;99.90
3866;DHT22;1948;53.250;10.412;2022-12-05T16:03:59;4.20;99.90
3866;DHT22;1948;53.250;10.412;2022-12-05T16:06:54;4.20;99.90
3866;DHT22;1948;53.250;10.412;2022-12-05T16:09:29;4.20;99.90
3866;DHT22;1948;53.250;10.412;2022-12-05T16:12:14;4.20;99.90
3866;DHT22;1948;53.250;10.412;2022-12-05T16:14:42;4.10;99.90
3866;DHT22;1948;53.250;10.412;2022-12-05T16:17:27;4.10;99.90
3866;DHT22;1948;53.250;10.412;2022-12-05T16:20:20;4.10;99.90
3866;DHT22;1948;53.250;10.412;2022-12-05T16:22:53;4.20;99.90
3866;DHT22;1948;53.250;10.412;2022-12-05T16:25:26;4.20;99.90
3866;DHT22;1948;53.250;10.412;2022-12-05T16:30:34;4.20;99.90
3866;DHT22;1948;53.250;10.412;2022-12-05T16:33:03;4.20;99.90
3866;DHT22;1948;53.250;10.412;2022-12-05T16:38:17;4.10;99.90
3866;DHT22;1948;53.250;10.412;2022-12-05T16:40:56;4.00;99.90
3866;DHT22;1948;53.250;10.412;2022-12-05T16:43:44;4.00;99.90
3866;DHT22;1948;53.250;10.412;2022-12-05T16:48:45;4.00;99.90
3866;DHT22;1948;53.250;10.412;2022-12-05T16:51:22;3.90;99.90
3866;DHT22;1948;53.250;10.412;2022-12-05T16:53:55;3.90;99.90
3866;DHT22;1948;53.250;10.412;2022-12-05T16:56:24;3.90;99.90
3866;DHT22;1948;53.250;10.412;2022-12-05T16:59:17;4.00;99.90
3866;DHT22;1948;53.250;10.412;2022-12-05T17:01:50;4.00;99.90
3866;DHT22;1948;53.250;10.412;2022-12-05T17:04:20;4.00;99.90
3866;DHT22;1948;53.250;10.412;2022-12-05T17:06:49;3.90;99.90
3866;DHT22;1948;53.250;10.412;2022-12-05T17:09:19;3.90;99.90
3866;DHT22;1948;53.250;10.412;2022-12-05T17:11:49;4.00;99.90
3866;DHT22;1948;53.250;10.412;2022-12-05T17:14:21;3.90;99.90
3866;DHT22;1948;53.250;10.412;2022-12-05T17:16:48;3.90;99.90
3866;DHT22;1948;53.250;10.412;2022-12-05T17:19:17;3.90;99.90
3866;DHT22;1948;53.250;10.412;2022-12-05T17:21:44;3.90;99.90
3866;DHT22;1948;53.250;10.412;2022-12-05T17:24:16;3.90;99.90
3866;DHT22;1948;53.250;10.412;2022-12-05T17:26:46;3.90;99.90
3866;DHT22;1948;53.250;10.412;2022-12-05T17:29:15;3.90;99.90
3866;DHT22;1948;53.250;10.412;2022-12-05T17:31:45;3.90;99.90
3866;DHT22;1948;53.250;10.412;2022-12-05T17:34:14;3.90;99.90
3866;DHT22;1948;53.250;10.412;2022-12-05T17:36:43;3.90;99.90
3866;DHT22;1948;53.250;10.412;2022-12-05T17:39:11;3.90;99.90
3866;DHT22;1948;53.250;10.412;2022-12-05T17:41:38;3.90;99.90
3866;DHT22;1948;53.250;10.412;2022-12-05T17:44:10;3.80;99.90
3866;DHT22;1948;53.250;10.412;2022-12-05T17:46:41;3.80;99.90
3866;DHT22;1948;53.250;10.412;2022-12-05T17:49:17;3.80;99.90
3866;DHT22;1948;53.250;10.412;2022-12-05T17:51:44;3.90;99.90
3866;DHT22;1948;53.250;10.412;2022-12-05T17:54:31;3.90;99.90
3866;DHT22;1948;53.250;10.412;2022-12-05T17:57:06;3.90;99.90
3866;DHT22;1948;53.250;10.412;2022-12-05T17:59:33;3.90;99.90
3866;DHT22;1948;53.250;10.412;2022-12-05T18:02:02;3.90;99.90
3866;DHT22;1948;53.250;10.412;2022-12-05T18:04:31;3.90;99.90
3866;DHT22;1948;53.250;10.412;2022-12-05T18:07:04;3.90;99.90
3866;DHT22;1948;53.250;10.412;2022-12-05T18:09:31;3.90;99.90
3866;DHT22;1948;53.250;10.412;2022-12-05T18:11:58;3.90;99.90
3866;DHT22;1948;53.250;10.412;2022-12-05T18:14:25;3.90;99.90
3866;DHT22;1948;53.250;10.412;2022-12-05T18:16:56;4.00;99.90
3866;DHT22;1948;53.250;10.412;2022-12-05T18:19:26;3.90;99.90
3866;DHT22;1948;53.250;10.412;2022-12-05T18:21:53;3.80;99.90
3866;DHT22;1948;53.250;10.412;2022-12-05T18:24:22;3.80;99.90
3866;DHT22;1948;53.250;10.412;2022-12-05T18:26:49;3.80;99.90
3866;DHT22;1948;53.250;10.412;2022-12-05T18:29:16;3.80;99.90
3866;DHT22;1948;53.250;10.412;2022-12-05T18:31:43;3.80;99.90
3866;DHT22;1948;53.250;10.412;2022-12-05T18:34:10;3.70;99.90
3866;DHT22;1948;53.250;10.412;2022-12-05T18:36:37;3.70;99.90
3866;DHT22;1948;53.250;10.412;2022-12-05T18:39:17;3.70;99.90
3866;DHT22;1948;53.250;10.412;2022-12-05T18:41:44;3.70;99.90
3866;DHT22;1948;53.250;10.412;2022-12-05T18:44:13;3.70;99.90
3866;DHT22;1948;53.250;10.412;2022-12-05T18:46:43;3.80;99.90
3866;DHT22;1948;53.250;10.412;2022-12-05T18:49:11;3.80;99.90
3866;DHT22;1948;53.250;10.412;2022-12-05T18:51:39;3.80;99.90
3866;DHT22;1948;53.250;10.412;2022-12-05T18:54:09;3.80;99.90
3866;DHT22;1948;53.250;10.412;2022-12-05T18:56:39;3.80;99.90
3866;DHT22;1948;53.250;10.412;2022-12-05T18:59:12;3.90;99.90
3866;DHT22;1948;53.250;10.412;2022-12-05T19:01:40;3.90;99.90
3866;DHT22;1948;53.250;10.412;2022-12-05T19:04:09;3.90;99.90
3866;DHT22;1948;53.250;10.412;2022-12-05T19:06:45;3.80;99.90
3866;DHT22;1948;53.250;10.412;2022-12-05T19:09:16;3.80;99.90
3866;DHT22;1948;53.250;10.412;2022-12-05T19:11:47;3.80;99.90
3866;DHT22;1948;53.250;10.412;2022-12-05T19:14:17;3.80;99.90
3866;DHT22;1948;53.250;10.412;2022-12-05T19:16:47;3.70;99.90
3866;DHT22;1948;53.250;10.412;2022-12-05T19:19:23;3.70;99.90
3866;DHT22;1948;53.250;10.412;2022-12-05T19:21:50;3.70;99.90
3866;DHT22;1948;53.250;10.412;2022-12-05T19:24:21;3.70;99.90
3866;DHT22;1948;53.250;10.412;2022-12-05T19:26:48;3.80;99.90
3866;DHT22;1948;53.250;10.412;2022-12-05T19:29:15;3.70;99.90
3866;DHT22;1948;53.250;10.412;2022-12-05T19:31:43;3.80;99.90
3866;DHT22;1948;53.250;10.412;2022-12-05T19:34:11;3.60;99.90
3866;DHT22;1948;53.250;10.412;2022-12-05T19:36:43;3.60;99.90
3866;DHT22;1948;53.250;10.412;2022-12-05T19:39:14;3.70;99.90
3866;DHT22;1948;53.250;10.412;2022-12-05T19:41:44;3.60;99.90
3866;DHT22;1948;53.250;10.412;2022-12-05T19:44:14;3.50;99.90
3866;DHT22;1948;53.250;10.412;2022-12-05T19:46:41;3.50;99.90
3866;DHT22;1948;53.250;10.412;2022-12-05T19:49:11;3.50;99.90
3866;DHT22;1948;53.250;10.412;2022-12-05T19:51:43;3.50;99.90
3866;DHT22;1948;53.250;10.412;2022-12-05T19:54:16;3.60;99.90
3866;DHT22;1948;53.250;10.412;2022-12-05T19:56:43;3.50;99.90
3866;DHT22;1948;53.250;10.412;2022-12-05T19:59:15;3.50;99.90
3866;DHT22;1948;53.250;10.412;2022-12-05T20:01:43;3.50;99.90
3866;DHT22;1948;53.250;10.412;2022-12-05T20:04:12;3.50;99.90
3866;DHT22;1948;53.250;10.412;2022-12-05T20:06:43;3.60;99.90
3866;DHT22;1948;53.250;10.412;2022-12-05T20:09:15;3.50;99.90
3866;DHT22;1948;53.250;10.412;2022-12-05T20:11:45;3.60;99.90
3866;DHT22;1948;53.250;10.412;2022-12-05T20:14:22;3.50;99.90
3866;DHT22;1948;53.250;10.412;2022-12-05T20:16:51;3.50;99.90
3866;DHT22;1948;53.250;10.412;2022-12-05T20:19:22;3.50;99.90
3866;DHT22;1948;53.250;10.412;2022-12-05T20:21:49;3.50;99.90
3866;DHT22;1948;53.250;10.412;2022-12-05T20:24:21;3.60;99.90
3866;DHT22;1948;53.250;10.412;2022-12-05T20:26:48;3.60;99.90
3866;DHT22;1948;53.250;10.412;2022-12-05T20:29:15;3.60;99.90